createdAt,value
2023-03-23T16:01:52.171Z,14.60
2023-03-23T16:06:57.237Z,14.60
2023-03-23T16:12:01.152Z,14.60
2023-03-23T16:17:06.363Z,14.50
2023-03-23T16:22:11.090Z,14.50
2023-03-23T16:27:14.910Z,14.40
2023-03-23T16:32:19.877Z,14.40
2023-03-23T16:37:23.542Z,14.40
2023-03-23T16:42:27.247Z,14.40
2023-03-23T16:47:32.347Z,14.50
2023-03-23T16:52:46.542Z,14.40
2023-03-23T16:57:50.349Z,14.50
2023-03-23T17:02:58.254Z,14.40
2023-03-23T17:08:01.997Z,14.50
2023-03-23T17:13:05.641Z,14.40
2023-03-23T17:18:11.071Z,14.40
2023-03-23T17:23:14.886Z,14.40
2023-03-23T17:28:20.391Z,14.40
2023-03-23T17:33:25.930Z,14.40
2023-03-23T17:38:29.664Z,14.40
2023-03-23T17:43:33.731Z,14.40
2023-03-23T17:48:39.057Z,14.40
2023-03-23T17:53:47.036Z,14.40
2023-03-23T17:58:50.784Z,14.50
2023-03-23T18:03:55.992Z,14.40
2023-03-23T18:08:59.752Z,14.40
2023-03-23T18:14:03.672Z,14.40
2023-03-23T18:19:09.673Z,14.40
2023-03-23T18:24:13.816Z,14.40
2023-03-23T18:29:17.633Z,14.40
2023-03-23T18:34:22.789Z,14.40
2023-03-23T18:39:28.506Z,14.30
2023-03-23T18:44:32.430Z,14.40
2023-03-23T18:49:37.539Z,14.30
2023-03-23T18:54:45.187Z,14.30
2023-03-23T18:59:49.170Z,14.20
2023-03-23T19:04:54.498Z,14.20
2023-03-23T19:09:58.153Z,14.20
2023-03-23T19:15:01.930Z,14.20
2023-03-23T19:20:14.515Z,14.10
2023-03-23T19:25:23.404Z,14.10
2023-03-23T19:30:27.032Z,14.20
2023-03-23T19:35:32.631Z,14.10
2023-03-23T19:40:49.790Z,14.10
2023-03-23T19:45:53.712Z,14.10
2023-03-23T19:50:59.182Z,14.10
2023-03-23T19:56:04.849Z,14.10
2023-03-23T20:01:08.783Z,14.20
2023-03-23T20:06:16.563Z,14.10
2023-03-23T20:11:21.179Z,14.10
2023-03-23T20:16:25.016Z,14.10
2023-03-23T20:21:30.559Z,14.10
2023-03-23T20:26:36.124Z,14.20
2023-03-23T20:31:41.665Z,14.10
2023-03-23T20:36:49.025Z,14.20
2023-03-23T20:41:54.972Z,14.20
2023-03-23T20:46:58.813Z,14.20
2023-03-23T20:52:04.616Z,14.30
2023-03-23T20:57:08.480Z,14.30
2023-03-23T21:02:15.968Z,14.30
2023-03-23T21:07:23.904Z,14.30
2023-03-23T21:12:27.825Z,14.20
2023-03-23T21:17:31.481Z,14.20
2023-03-23T21:22:36.834Z,14.00
2023-03-23T21:27:40.562Z,14.00
2023-03-23T21:32:44.174Z,13.80
2023-03-23T21:37:49.335Z,13.70
2023-03-23T21:42:53.286Z,13.60
2023-03-23T21:47:58.177Z,13.60
2023-03-23T21:53:03.702Z,13.50
2023-03-23T21:58:08.036Z,13.40
2023-03-23T22:03:11.695Z,13.40
2023-03-23T22:08:16.789Z,13.30
2023-03-23T22:13:20.643Z,13.00
2023-03-23T22:18:24.360Z,13.10
2023-03-23T22:23:29.588Z,13.00
2023-03-23T22:28:34.270Z,13.00
2023-03-23T22:33:38.656Z,12.90
2023-03-23T22:38:45.627Z,13.00
2023-03-23T22:43:49.584Z,12.90
2023-03-23T22:48:54.817Z,12.90
2023-03-23T22:53:59.862Z,12.80
2023-03-23T22:59:03.835Z,12.80
2023-03-23T23:04:07.720Z,12.80
2023-03-23T23:09:12.806Z,12.80
2023-03-23T23:14:16.715Z,12.80
2023-03-23T23:19:20.463Z,12.80
2023-03-23T23:24:26.644Z,12.70
2023-03-23T23:29:31.721Z,12.70
